createdAt,value
2023-01-13T00:01:09.020Z,98383.03
2023-01-13T00:03:37.948Z,98380.50
2023-01-13T00:06:07.832Z,98373.00
2023-01-13T00:08:37.551Z,98392.44
2023-01-13T00:11:05.837Z,98381.13
2023-01-13T00:13:35.498Z,98378.44
2023-01-13T00:16:05.981Z,98375.06
2023-01-13T00:18:34.687Z,98363.81
2023-01-13T00:21:03.841Z,98366.34
2023-01-13T00:23:34.454Z,98368.97
2023-01-13T00:26:07.046Z,98368.34
2023-01-13T00:28:35.450Z,98373.13
2023-01-13T00:31:07.279Z,98362.13
2023-01-13T00:33:35.807Z,98371.19
2023-01-13T00:36:05.806Z,98352.25
2023-01-13T00:38:35.749Z,98359.63
2023-01-13T00:41:07.567Z,98354.63
2023-01-13T00:43:37.116Z,98357.19
2023-01-13T00:46:07.218Z,98356.25
2023-01-13T00:48:36.001Z,98356.94
2023-01-13T00:51:06.521Z,98351.88
2023-01-13T00:53:40.972Z,98358.06
2023-01-13T00:56:15.075Z,98349.63
2023-01-13T00:58:44.433Z,98345.63
2023-01-13T01:01:15.171Z,98354.09
2023-01-13T01:03:43.506Z,98331.44
2023-01-13T01:06:14.300Z,98331.50
2023-01-13T01:08:43.488Z,98327.81
2023-01-13T01:11:15.399Z,98328.81
2023-01-13T01:13:43.792Z,98327.97
2023-01-13T01:16:13.911Z,98327.03
2023-01-13T01:18:44.499Z,98336.75
2023-01-13T01:21:13.344Z,98338.44
2023-01-13T01:23:42.655Z,98323.50
2023-01-13T01:26:14.975Z,98326.41
2023-01-13T01:28:44.334Z,98327.34
2023-01-13T01:31:15.110Z,98325.56
2023-01-13T01:33:43.433Z,98327.25
2023-01-13T01:36:13.248Z,98330.13
2023-01-13T01:38:41.626Z,98337.34
2023-01-13T01:41:13.705Z,98315.38
2023-01-13T01:44:07.456Z,98331.66
2023-01-13T01:46:38.510Z,98340.28
2023-01-13T01:49:13.906Z,98323.66
2023-01-13T01:51:45.742Z,98334.97
2023-01-13T01:54:19.549Z,98351.41
2023-01-13T01:56:47.989Z,98348.59
2023-01-13T01:59:18.136Z,98331.34
2023-01-13T02:01:47.139Z,98335.81
2023-01-13T02:04:18.579Z,98327.25
2023-01-13T02:06:48.901Z,98329.94
2023-01-13T02:09:18.348Z,98337.16
2023-01-13T02:12:03.891Z,98331.19
2023-01-13T02:14:35.210Z,98342.72
2023-01-13T02:17:19.483Z,98337.63
2023-01-13T02:20:20.253Z,98350.63
2023-01-13T02:23:34.712Z,98353.31
2023-01-13T02:26:26.750Z,98356.84
2023-01-13T02:29:28.454Z,98365.16
2023-01-13T02:32:03.557Z,98344.88
2023-01-13T02:34:39.421Z,98362.03
2023-01-13T02:37:15.069Z,98356.00
2023-01-13T02:39:49.879Z,98370.94
2023-01-13T02:42:38.999Z,98357.31
2023-01-13T02:45:13.560Z,98361.78
2023-01-13T02:47:47.508Z,98348.94
2023-01-13T02:50:19.067Z,98344.72
2023-01-13T02:52:51.887Z,98348.38
2023-01-13T02:55:25.817Z,98345.75
2023-01-13T02:57:56.699Z,98371.75
2023-01-13T03:00:25.438Z,98364.78
2023-01-13T03:02:55.032Z,98368.44
2023-01-13T03:05:24.094Z,98373.59
2023-01-13T03:08:17.899Z,98369.75
2023-01-13T03:11:02.416Z,98373.06
2023-01-13T03:13:54.852Z,98369.16
2023-01-13T03:16:31.089Z,98371.13
2023-01-13T03:19:14.641Z,98376.19
2023-01-13T03:21:52.559Z,98396.25
2023-01-13T03:24:27.473Z,98391.88
2023-01-13T03:27:01.605Z,98398.94
2023-01-13T03:29:35.790Z,98395.41
2023-01-13T03:32:08.183Z,98416.19
2023-01-13T03:34:44.244Z,98412.66
2023-01-13T03:37:15.042Z,98419.50
2023-01-13T03:39:49.059Z,98416.03
2023-01-13T03:42:21.685Z,98419.28
2023-01-13T03:44:55.921Z,98421.19
2023-01-13T03:47:29.117Z,98414.34
2023-01-13T03:50:05.494Z,98420.34
2023-01-13T03:52:37.757Z,98425.34
2023-01-13T03:55:11.889Z,98433.88
2023-01-13T03:57:48.779Z,98426.03
2023-01-13T04:00:18.225Z,98421.69
2023-01-13T04:02:52.313Z,98430.38
2023-01-13T04:05:22.461Z,98429.59
2023-01-13T04:07:56.242Z,98443.44
2023-01-13T04:10:29.059Z,98432.91
2023-01-13T04:13:01.753Z,98446.66
2023-01-13T04:15:33.710Z,98443.16
2023-01-13T04:18:13.081Z,98451.91
2023-01-13T04:20:43.510Z,98450.22
2023-01-13T04:23:13.613Z,98443.00
2023-01-13T04:25:42.361Z,98447.19
2023-01-13T04:28:11.544Z,98433.19
2023-01-13T04:30:40.206Z,98439.16
2023-01-13T04:33:08.754Z,98426.31
2023-01-13T04:35:38.178Z,98456.00
2023-01-13T04:38:09.039Z,98457.69
2023-01-13T04:40:37.560Z,98451.47
2023-01-13T04:43:06.210Z,98453.00
2023-01-13T04:45:34.670Z,98443.34
2023-01-13T04:48:03.159Z,98455.41
2023-01-13T04:50:31.383Z,98454.41
2023-01-13T04:53:00.489Z,98472.59
2023-01-13T04:55:30.030Z,98475.03
2023-01-13T04:58:03.085Z,98474.91
2023-01-13T05:00:32.094Z,98486.22
2023-01-13T05:03:00.579Z,98487.97
2023-01-13T05:05:29.859Z,98477.66
2023-01-13T05:07:58.103Z,98489.19
2023-01-13T05:10:26.520Z,98503.50
2023-01-13T05:13:13.529Z,98497.69
2023-01-13T05:16:00.301Z,98513.22
2023-01-13T05:18:30.937Z,98525.50
2023-01-13T05:20:59.156Z,98536.06
2023-01-13T05:23:44.718Z,98534.75
2023-01-13T05:26:12.862Z,98544.03
2023-01-13T05:28:42.383Z,98543.47
2023-01-13T05:31:12.248Z,98531.25
2023-01-13T05:33:40.586Z,98538.97
2023-01-13T05:36:09.539Z,98550.19
2023-01-13T05:38:37.741Z,98540.53
2023-01-13T05:41:23.409Z,98551.50
2023-01-13T05:43:52.951Z,98557.50
2023-01-13T05:46:21.360Z,98565.41
2023-01-13T05:48:49.539Z,98554.97
2023-01-13T05:51:17.717Z,98545.03
2023-01-13T05:53:45.954Z,98569.13
2023-01-13T05:56:14.204Z,98570.69
2023-01-13T05:58:42.406Z,98565.31
2023-01-13T06:01:11.912Z,98569.44
2023-01-13T06:03:40.181Z,98575.66
2023-01-13T06:06:09.182Z,98577.19
2023-01-13T06:08:39.523Z,98582.16
2023-01-13T06:11:08.267Z,98575.09
2023-01-13T06:13:36.547Z,98579.28
2023-01-13T06:16:04.888Z,98598.34
2023-01-13T06:18:34.360Z,98583.47
2023-01-13T06:21:02.568Z,98600.84
2023-01-13T06:23:35.044Z,98599.75
2023-01-13T06:26:11.115Z,98601.34
2023-01-13T06:28:39.349Z,98615.97
2023-01-13T06:31:09.518Z,98598.44
2023-01-13T06:33:42.144Z,98594.78
2023-01-13T06:36:17.352Z,98608.63
2023-01-13T06:38:48.943Z,98619.00
2023-01-13T06:41:18.009Z,98618.09
2023-01-13T06:43:45.169Z,98629.28
2023-01-13T06:46:13.438Z,98637.75
2023-01-13T06:48:42.974Z,98627.28
2023-01-13T06:51:11.211Z,98623.63
2023-01-13T06:53:39.458Z,98620.09
2023-01-13T06:56:08.262Z,98610.63
2023-01-13T06:58:36.523Z,98631.81
2023-01-13T07:01:04.939Z,98631.09
2023-01-13T07:03:33.191Z,98627.63
2023-01-13T07:06:02.875Z,98632.66
2023-01-13T07:08:31.138Z,98657.81
2023-01-13T07:10:59.579Z,98643.84
2023-01-13T07:13:45.216Z,98651.75
2023-01-13T07:16:14.037Z,98657.13
2023-01-13T07:18:42.165Z,98672.22
2023-01-13T07:21:18.811Z,98673.22
2023-01-13T07:23:48.532Z,98682.63
2023-01-13T07:26:17.334Z,98688.63
2023-01-13T07:28:45.602Z,98698.19
2023-01-13T07:31:16.123Z,98698.13
2023-01-13T07:33:44.579Z,98711.09
2023-01-13T07:36:14.516Z,98719.72
2023-01-13T07:38:44.553Z,98710.97
2023-01-13T07:41:31.991Z,98714.50
2023-01-13T07:44:04.960Z,98724.13
2023-01-13T07:46:33.691Z,98726.03
2023-01-13T07:49:01.957Z,98720.13
2023-01-13T07:51:31.801Z,98719.38
2023-01-13T07:53:59.944Z,98729.94
2023-01-13T07:56:28.239Z,98724.84
2023-01-13T07:58:56.467Z,98749.16
2023-01-13T08:01:24.835Z,98748.31
2023-01-13T08:03:53.116Z,98755.38
2023-01-13T08:06:21.494Z,98760.66
2023-01-13T08:08:51.102Z,98763.22
2023-01-13T08:11:22.093Z,98760.28
2023-01-13T08:13:51.760Z,98787.19
2023-01-13T08:16:20.240Z,98776.06
2023-01-13T08:18:48.713Z,98788.63
2023-01-13T08:21:17.599Z,98787.06
2023-01-13T08:23:46.585Z,98799.22
2023-01-13T08:26:18.451Z,98813.06
2023-01-13T08:28:47.337Z,98811.38
2023-01-13T08:31:20.108Z,98808.63
2023-01-13T08:33:48.703Z,98817.78
2023-01-13T08:36:18.589Z,98835.03
2023-01-13T08:38:47.096Z,98844.28
2023-01-13T08:41:38.822Z,98851.94
2023-01-13T08:44:09.356Z,98855.34
2023-01-13T08:46:38.038Z,98850.13
2023-01-13T08:49:06.414Z,98857.16
2023-01-13T08:51:35.095Z,98869.59
2023-01-13T08:54:03.393Z,98878.47
2023-01-13T08:56:35.441Z,98868.16
2023-01-13T08:59:04.465Z,98885.53
2023-01-13T09:01:34.192Z,98886.97
2023-01-13T09:04:02.640Z,98888.69
2023-01-13T09:06:31.022Z,98872.06
2023-01-13T09:08:59.731Z,98894.59
2023-01-13T09:11:52.411Z,98900.44
2023-01-13T09:14:21.603Z,98892.34
2023-01-13T09:16:49.841Z,98912.31
2023-01-13T09:19:18.235Z,98903.41
2023-01-13T09:21:46.614Z,98894.59
2023-01-13T09:24:15.006Z,98910.03
2023-01-13T09:26:44.483Z,98914.28
2023-01-13T09:29:12.921Z,98926.47
2023-01-13T09:31:44.007Z,98935.13
2023-01-13T09:34:33.930Z,98939.34
2023-01-13T09:37:03.475Z,98936.28
2023-01-13T09:39:32.951Z,98950.03
2023-01-13T09:42:30.446Z,98938.53
2023-01-13T09:45:05.761Z,98953.31
2023-01-13T09:47:41.295Z,98957.75
2023-01-13T09:50:30.782Z,98977.84
2023-01-13T09:53:00.727Z,98962.84
2023-01-13T09:55:34.770Z,98979.16
2023-01-13T09:58:12.575Z,98971.03
2023-01-13T10:00:47.233Z,98984.81
2023-01-13T10:03:22.664Z,98981.25
2023-01-13T10:05:57.934Z,98994.50
2023-01-13T10:08:29.521Z,99003.31
2023-01-13T10:11:00.487Z,98999.91
2023-01-13T10:13:31.548Z,99003.38
2023-01-13T10:16:14.225Z,99001.63
2023-01-13T10:18:55.238Z,99014.63
2023-01-13T10:21:45.733Z,99024.09
2023-01-13T10:24:25.293Z,99023.91
2023-01-13T10:27:04.388Z,99026.44
2023-01-13T10:29:34.752Z,99045.56
2023-01-13T10:32:03.032Z,99042.94
2023-01-13T10:34:31.614Z,99045.41
2023-01-13T10:37:03.318Z,99037.44
2023-01-13T10:39:41.740Z,99054.94
2023-01-13T10:42:15.396Z,99062.72
2023-01-13T10:44:53.021Z,99060.03
2023-01-13T10:47:25.181Z,99061.47
2023-01-13T10:50:22.392Z,99076.13
2023-01-13T10:53:00.172Z,99088.03
2023-01-13T10:55:32.055Z,99085.31
2023-01-13T10:58:13.500Z,99078.38
2023-01-13T11:00:43.275Z,99082.94
2023-01-13T11:03:22.896Z,99090.13
2023-01-13T11:05:54.119Z,99093.41
2023-01-13T11:08:25.223Z,99098.50
2023-01-13T11:10:55.855Z,99090.66
2023-01-13T11:13:33.125Z,99108.06
2023-01-13T11:16:07.037Z,99099.09
2023-01-13T11:18:51.983Z,99096.63
2023-01-13T11:21:25.748Z,99105.75
2023-01-13T11:24:05.634Z,99089.59
2023-01-13T11:26:44.920Z,99094.09
2023-01-13T11:29:19.545Z,99108.88
2023-01-13T11:31:52.545Z,99102.38
2023-01-13T11:34:29.727Z,99113.78
2023-01-13T11:37:01.618Z,99102.47
2023-01-13T11:39:43.122Z,99113.97
2023-01-13T11:42:24.134Z,99113.28
2023-01-13T11:45:03.867Z,99120.91
2023-01-13T11:47:35.017Z,99116.09
2023-01-13T11:50:03.754Z,99114.91
2023-01-13T11:52:45.869Z,99132.34
2023-01-13T11:55:33.676Z,99130.63
2023-01-13T11:58:28.989Z,99145.25
2023-01-13T12:01:07.927Z,99155.75
2023-01-13T12:03:43.105Z,99154.75
2023-01-13T12:06:21.100Z,99155.34
2023-01-13T12:09:06.001Z,99172.38
2023-01-13T12:12:01.868Z,99171.41
2023-01-13T12:14:42.724Z,99185.56
2023-01-13T12:17:23.464Z,99190.69
2023-01-13T12:19:52.992Z,99200.75
2023-01-13T12:22:27.185Z,99199.72
2023-01-13T12:25:05.287Z,99209.44
2023-01-13T12:27:42.969Z,99211.13
2023-01-13T12:30:23.570Z,99225.88
2023-01-13T12:32:55.913Z,99227.28
2023-01-13T12:35:38.023Z,99233.50
2023-01-13T12:38:14.032Z,99245.69
2023-01-13T12:40:55.594Z,99248.50
2023-01-13T12:43:43.510Z,99251.00
2023-01-13T12:46:46.695Z,99261.38
2023-01-13T12:49:23.474Z,99267.47
2023-01-13T12:52:19.987Z,99265.81
2023-01-13T12:55:14.772Z,99265.81
2023-01-13T12:57:58.136Z,99268.97
2023-01-13T13:00:33.171Z,99275.13
2023-01-13T13:03:24.677Z,99277.91
2023-01-13T13:05:58.905Z,99285.75
2023-01-13T13:08:44.010Z,99280.50
2023-01-13T13:12:00.668Z,99293.88
2023-01-13T13:15:06.833Z,99307.06
2023-01-13T13:17:46.304Z,99306.31
2023-01-13T13:20:50.631Z,99322.06
2023-01-13T13:23:48.017Z,99322.91
2023-01-13T13:26:25.054Z,99324.69
2023-01-13T13:29:07.501Z,99323.75
2023-01-13T13:31:53.144Z,99337.94
2023-01-13T13:34:31.485Z,99345.13
2023-01-13T13:37:12.185Z,99326.63
2023-01-13T13:39:58.451Z,99332.78
2023-01-13T13:42:46.244Z,99342.50
2023-01-13T13:45:37.377Z,99334.09
2023-01-13T13:48:25.948Z,99362.91
2023-01-13T13:51:01.812Z,99358.53
2023-01-13T13:53:34.123Z,99361.84
2023-01-13T13:56:07.974Z,99371.19
2023-01-13T13:58:37.267Z,99372.00
2023-01-13T14:01:07.228Z,99384.13
2023-01-13T14:03:39.842Z,99378.91
2023-01-13T14:06:09.057Z,99388.66
2023-01-13T14:08:39.499Z,99389.53
2023-01-13T14:11:26.992Z,99393.63
2023-01-13T14:14:03.342Z,99394.38
2023-01-13T14:16:32.715Z,99400.72
2023-01-13T14:19:01.398Z,99398.47
2023-01-13T14:21:30.922Z,99400.47
2023-01-13T14:24:04.641Z,99411.81
2023-01-13T14:26:34.026Z,99396.88
2023-01-13T14:29:03.417Z,99410.97
2023-01-13T14:31:32.919Z,99407.59
2023-01-13T14:34:32.962Z,99410.41
2023-01-13T14:36:52.437Z,99406.56
2023-01-13T14:39:35.215Z,99413.88
2023-01-13T14:42:05.153Z,99435.97
2023-01-13T14:44:36.023Z,99440.41
2023-01-13T14:47:16.430Z,99438.84
2023-01-13T14:49:58.868Z,99453.03
2023-01-13T14:52:29.145Z,99450.75
2023-01-13T14:55:22.280Z,99445.66
2023-01-13T14:57:52.485Z,99458.81
2023-01-13T15:00:24.589Z,99454.38
2023-01-13T15:03:14.990Z,99449.13
2023-01-13T15:05:49.313Z,99456.06
2023-01-13T15:08:29.337Z,99457.69
2023-01-13T15:11:00.970Z,99457.69
2023-01-13T15:13:37.382Z,99457.09
2023-01-13T15:16:07.945Z,99456.50
2023-01-13T15:18:40.101Z,99476.72
2023-01-13T15:21:09.326Z,99479.47
2023-01-13T15:23:39.941Z,99469.00
2023-01-13T15:26:19.992Z,99476.78
2023-01-13T15:28:50.803Z,99476.84
2023-01-13T15:31:19.767Z,99479.59
2023-01-13T15:33:48.211Z,99480.72
2023-01-13T15:36:22.441Z,99485.31
2023-01-13T15:38:51.242Z,99504.47
2023-01-13T15:41:39.877Z,99492.16
2023-01-13T15:44:29.634Z,99492.88
2023-01-13T15:46:59.564Z,99498.81
2023-01-13T15:49:34.912Z,99498.06
2023-01-13T15:52:04.407Z,99497.53
2023-01-13T15:54:32.891Z,99495.91
2023-01-13T15:57:01.295Z,99509.91
2023-01-13T15:59:30.770Z,99509.28
2023-01-13T16:01:59.079Z,99514.53
2023-01-13T16:04:27.348Z,99518.06
2023-01-13T16:06:55.686Z,99514.97
2023-01-13T16:09:23.821Z,99534.41
2023-01-13T16:11:52.101Z,99529.28
2023-01-13T16:14:20.214Z,99524.97
2023-01-13T16:16:49.743Z,99537.38
2023-01-13T16:19:17.924Z,99537.50
2023-01-13T16:21:46.386Z,99555.00
2023-01-13T16:24:14.605Z,99546.25
2023-01-13T16:26:42.879Z,99549.66
2023-01-13T16:29:12.620Z,99545.28
2023-01-13T16:31:41.054Z,99550.72
2023-01-13T16:34:10.653Z,99555.19
2023-01-13T16:36:38.984Z,99563.09
2023-01-13T16:39:21.743Z,99564.84
2023-01-13T16:41:50.003Z,99561.44
2023-01-13T16:44:18.345Z,99565.91
2023-01-13T16:46:47.645Z,99567.72
2023-01-13T16:49:18.425Z,99567.72
2023-01-13T16:51:46.772Z,99573.03
2023-01-13T16:54:15.004Z,99571.34
2023-01-13T16:56:43.271Z,99570.44
2023-01-13T16:59:14.594Z,99564.53
2023-01-13T17:01:45.064Z,99564.63
2023-01-13T17:04:17.883Z,99572.59
2023-01-13T17:06:52.979Z,99580.53
2023-01-13T17:09:23.640Z,99578.84
2023-01-13T17:11:51.861Z,99580.75
2023-01-13T17:14:23.307Z,99589.56
2023-01-13T17:16:53.104Z,99571.31
2023-01-13T17:19:25.679Z,99575.53
2023-01-13T17:21:54.167Z,99571.22
2023-01-13T17:24:24.842Z,99570.53
2023-01-13T17:26:57.394Z,99575.69
2023-01-13T17:29:27.724Z,99574.78
2023-01-13T17:31:56.462Z,99580.06
2023-01-13T17:34:26.024Z,99586.19
2023-01-13T17:36:54.415Z,99587.13
2023-01-13T17:39:24.821Z,99580.34
2023-01-13T17:41:55.965Z,99592.66
2023-01-13T17:44:24.562Z,99588.44
2023-01-13T17:46:52.651Z,99593.72
2023-01-13T17:49:22.156Z,99592.97
2023-01-13T17:51:53.046Z,99587.69
2023-01-13T17:54:21.467Z,99584.22
2023-01-13T17:56:49.632Z,99586.03
2023-01-13T17:59:19.872Z,99599.13
2023-01-13T18:01:48.277Z,99619.34
2023-01-13T18:04:18.277Z,99632.56
2023-01-13T18:06:46.611Z,99642.44
2023-01-13T18:09:16.716Z,99662.03
2023-01-13T18:11:46.523Z,99662.44
2023-01-13T18:14:15.697Z,99659.16
2023-01-13T18:16:44.327Z,99662.56
2023-01-13T18:19:30.221Z,99654.88
2023-01-13T18:22:15.833Z,99648.88
2023-01-13T18:25:03.032Z,99644.66
2023-01-13T18:27:33.949Z,99628.28
2023-01-13T18:30:04.829Z,99637.13
2023-01-13T18:32:34.073Z,99638.13
2023-01-13T18:35:06.731Z,99642.66
2023-01-13T18:37:38.632Z,99638.69
2023-01-13T18:40:10.376Z,99645.97
2023-01-13T18:42:56.479Z,99648.00
2023-01-13T18:45:26.453Z,99652.63
2023-01-13T18:47:57.172Z,99652.84
2023-01-13T18:50:26.270Z,99653.09
2023-01-13T18:52:54.642Z,99651.47
2023-01-13T18:55:24.681Z,99640.41
2023-01-13T18:57:53.682Z,99642.31
2023-01-13T19:00:23.152Z,99643.31
2023-01-13T19:05:35.794Z,99641.06
2023-01-13T19:08:04.529Z,99639.56
2023-01-13T19:10:34.113Z,99654.22
2023-01-13T19:13:02.871Z,99650.47
2023-01-13T19:15:31.656Z,99652.66
2023-01-13T19:18:00.696Z,99638.16
2023-01-13T19:20:29.026Z,99629.53
2023-01-13T19:22:57.272Z,99635.91
2023-01-13T19:25:25.545Z,99631.16
2023-01-13T19:27:55.183Z,99627.44
2023-01-13T19:30:23.306Z,99622.94
2023-01-13T19:32:51.551Z,99619.44
2023-01-13T19:35:20.205Z,99621.91
2023-01-13T19:37:48.462Z,99621.81
2023-01-13T19:40:17.312Z,99617.38
2023-01-13T19:43:03.283Z,99621.53
2023-01-13T19:45:35.354Z,99612.78
2023-01-13T19:48:05.689Z,99613.69
2023-01-13T19:50:37.497Z,99602.34
2023-01-13T19:53:05.905Z,99582.44
2023-01-13T19:55:34.238Z,99583.31
2023-01-13T19:58:03.467Z,99582.44
2023-01-13T20:00:33.397Z,99591.13
2023-01-13T20:03:04.397Z,99585.19
2023-01-13T20:05:32.973Z,99592.41
2023-01-13T20:08:01.294Z,99609.91
2023-01-13T20:10:31.438Z,99590.78
2023-01-13T20:12:59.643Z,99589.69
2023-01-13T20:15:28.052Z,99584.38
2023-01-13T20:17:58.515Z,99574.75
2023-01-13T20:20:27.542Z,99573.06
2023-01-13T20:22:55.830Z,99567.00
2023-01-13T20:25:24.250Z,99567.97
2023-01-13T20:27:52.968Z,99566.41
2023-01-13T20:30:21.412Z,99568.34
2023-01-13T20:32:49.608Z,99563.19
2023-01-13T20:35:19.397Z,99565.03
2023-01-13T20:37:47.663Z,99565.09
2023-01-13T20:40:18.446Z,99569.84
2023-01-13T20:42:46.803Z,99573.84
2023-01-13T20:45:20.841Z,99571.53
2023-01-13T20:47:49.288Z,99567.41
2023-01-13T20:50:19.436Z,99566.59
2023-01-13T20:52:48.224Z,99554.63
2023-01-13T20:55:16.792Z,99564.28
2023-01-13T20:57:48.625Z,99571.22
2023-01-13T21:00:17.762Z,99563.38
2023-01-13T21:02:45.970Z,99558.16
2023-01-13T21:05:14.523Z,99552.13
2023-01-13T21:07:44.094Z,99553.06
2023-01-13T21:10:12.531Z,99548.03
2023-01-13T21:12:58.086Z,99551.63
2023-01-13T21:15:27.508Z,99544.75
2023-01-13T21:18:12.872Z,99540.41
2023-01-13T21:20:41.274Z,99533.13
2023-01-13T21:23:11.940Z,99551.13
2023-01-13T21:25:40.695Z,99545.72
2023-01-13T21:28:11.890Z,99554.06
2023-01-13T21:30:40.885Z,99541.69
2023-01-13T21:33:13.668Z,99535.16
2023-01-13T21:35:42.656Z,99525.22
2023-01-13T21:38:13.712Z,99518.09
2023-01-13T21:40:42.063Z,99528.50
2023-01-13T21:43:31.064Z,99517.09
2023-01-13T21:46:16.722Z,99511.81
2023-01-13T21:48:45.039Z,99511.72
2023-01-13T21:51:13.230Z,99501.19
2023-01-13T21:53:42.751Z,99488.06
2023-01-13T21:56:10.909Z,99477.56
2023-01-13T21:58:40.221Z,99482.69
2023-01-13T22:01:09.797Z,99481.03
2023-01-13T22:03:54.971Z,99475.03
2023-01-13T22:06:23.434Z,99462.84
2023-01-13T22:08:54.096Z,99471.53
2023-01-13T22:11:22.771Z,99459.31
2023-01-13T22:14:08.297Z,99461.94
2023-01-13T22:16:39.574Z,99454.97
2023-01-13T22:19:08.894Z,99464.53
2023-01-13T22:21:37.678Z,99454.97
2023-01-13T22:24:08.085Z,99459.19
2023-01-13T22:26:36.441Z,99457.41
2023-01-13T22:29:04.996Z,99458.16
2023-01-13T22:31:33.425Z,99445.97
2023-01-13T22:34:01.711Z,99442.53
2023-01-13T22:36:30.010Z,99432.94
2023-01-13T22:39:00.691Z,99416.44
2023-01-13T22:41:30.407Z,99417.25
2023-01-13T22:43:58.610Z,99405.94
2023-01-13T22:46:26.940Z,99405.94
2023-01-13T22:48:55.959Z,99402.41
2023-01-13T22:51:26.601Z,99381.56
2023-01-13T22:53:55.786Z,99378.03
2023-01-13T22:56:25.780Z,99375.50
2023-01-13T22:58:56.556Z,99369.47
2023-01-13T23:01:25.633Z,99367.75
2023-01-13T23:03:54.434Z,99364.25
2023-01-13T23:06:24.679Z,99361.63
2023-01-13T23:08:53.645Z,99353.75
2023-01-13T23:11:24.727Z,99353.78
2023-01-13T23:14:00.104Z,99356.34
2023-01-13T23:16:30.692Z,99347.47
2023-01-13T23:18:59.148Z,99343.03
2023-01-13T23:21:30.095Z,99332.50
2023-01-13T23:23:58.960Z,99334.16
2023-01-13T23:26:28.269Z,99330.59
2023-01-13T23:29:01.641Z,99324.38
2023-01-13T23:31:30.079Z,99313.03
2023-01-13T23:33:58.461Z,99309.50
2023-01-13T23:36:28.097Z,99307.69
2023-01-13T23:38:56.950Z,99298.91
2023-01-13T23:41:26.895Z,99302.31
2023-01-13T23:43:56.674Z,99286.59
2023-01-13T23:46:27.416Z,99281.25
2023-01-13T23:48:56.290Z,99272.50
2023-01-13T23:51:26.219Z,99268.13
2023-01-13T23:53:55.126Z,99271.66
2023-01-13T23:56:25.513Z,99268.22
2023-01-13T23:58:54.091Z,99266.47
